createdAt,value
2019-01-15T00:02:03.775Z,97.00
2019-01-15T00:04:29.967Z,96.50
2019-01-15T00:06:56.083Z,96.30
2019-01-15T00:09:22.182Z,96.20
2019-01-15T00:11:48.309Z,96.20
2019-01-15T00:14:14.416Z,96.30
2019-01-15T00:16:40.518Z,96.20
2019-01-15T00:19:06.607Z,96.10
2019-01-15T00:21:32.783Z,96.10
2019-01-15T00:23:58.898Z,96.40
2019-01-15T00:26:24.983Z,96.20
2019-01-15T00:28:51.098Z,96.00
2019-01-15T00:31:17.187Z,95.90
2019-01-15T00:33:43.350Z,95.90
2019-01-15T00:36:09.440Z,95.80
2019-01-15T00:38:35.542Z,95.80
2019-01-15T00:41:01.636Z,95.90
2019-01-15T00:43:27.755Z,95.90
2019-01-15T00:45:53.843Z,96.10
2019-01-15T00:48:19.967Z,96.20
2019-01-15T00:50:46.069Z,96.50
2019-01-15T00:53:12.184Z,96.70
2019-01-15T00:55:38.295Z,96.80
2019-01-15T00:58:04.434Z,96.70
2019-01-15T01:00:30.538Z,96.90
2019-01-15T01:02:56.667Z,97.00
2019-01-15T01:05:22.868Z,97.10
2019-01-15T01:07:48.971Z,97.20
2019-01-15T01:10:15.689Z,97.30
2019-01-15T01:12:41.771Z,97.30
2019-01-15T01:15:11.205Z,97.30
2019-01-15T01:17:37.300Z,97.80
2019-01-15T01:20:06.822Z,97.70
2019-01-15T01:22:32.951Z,98.00
2019-01-15T01:24:59.067Z,98.00
2019-01-15T01:27:25.153Z,97.90
2019-01-15T01:29:51.282Z,98.40
2019-01-15T01:32:17.384Z,98.30
2019-01-15T01:34:43.467Z,98.50
2019-01-15T01:37:09.603Z,98.30
2019-01-15T01:39:35.698Z,98.30
2019-01-15T01:42:01.835Z,98.30
2019-01-15T01:44:27.958Z,98.30
2019-01-15T01:46:54.059Z,98.30
2019-01-15T01:49:20.163Z,98.40
2019-01-15T01:51:46.290Z,98.90
2019-01-15T01:54:12.404Z,98.90
2019-01-15T01:56:38.627Z,98.90
2019-01-15T01:59:04.731Z,98.90
2019-01-15T02:01:30.847Z,99.00
2019-01-15T02:03:56.969Z,99.20
2019-01-15T02:06:23.169Z,99.20
2019-01-15T02:08:49.253Z,99.20
2019-01-15T02:11:15.372Z,99.10
2019-01-15T02:13:41.468Z,99.10
2019-01-15T02:16:07.602Z,99.00
2019-01-15T02:18:33.714Z,98.80
2019-01-15T02:20:59.835Z,98.70
2019-01-15T02:23:25.942Z,98.50
2019-01-15T02:25:52.056Z,98.40
2019-01-15T02:28:18.174Z,98.20
2019-01-15T02:30:44.272Z,98.00
2019-01-15T02:33:10.412Z,98.00
2019-01-15T02:35:36.498Z,98.00
2019-01-15T02:38:02.622Z,97.90
2019-01-15T02:40:28.712Z,97.80
2019-01-15T02:42:54.827Z,97.60
2019-01-15T02:45:20.944Z,97.50
2019-01-15T02:47:47.071Z,97.20
2019-01-15T02:50:15.175Z,97.40
2019-01-15T02:52:41.297Z,97.50
2019-01-15T02:55:09.134Z,97.40
2019-01-15T02:57:35.217Z,97.40
2019-01-15T03:00:03.631Z,97.30
2019-01-15T03:02:29.722Z,97.30
2019-01-15T03:04:55.870Z,97.10
2019-01-15T03:07:21.964Z,97.00
2019-01-15T03:09:48.109Z,97.00
2019-01-15T03:12:14.307Z,97.10
2019-01-15T03:14:40.440Z,97.20
2019-01-15T03:17:06.522Z,97.30
2019-01-15T03:19:32.755Z,97.30
2019-01-15T03:21:58.856Z,97.30
2019-01-15T03:24:25.013Z,97.30
2019-01-15T03:26:51.107Z,97.30
2019-01-15T03:29:17.215Z,97.20
2019-01-15T03:31:43.312Z,97.20
2019-01-15T03:34:09.424Z,97.10
2019-01-15T03:36:35.527Z,97.20
2019-01-15T03:39:02.648Z,97.20
2019-01-15T03:41:28.760Z,97.20
2019-01-15T03:43:54.861Z,97.20
2019-01-15T03:46:21.017Z,97.30
2019-01-15T03:48:47.199Z,97.40
2019-01-15T03:51:13.303Z,97.40
2019-01-15T03:53:39.391Z,97.50
2019-01-15T03:56:05.508Z,97.50
2019-01-15T03:58:31.719Z,97.60
2019-01-15T04:00:57.857Z,97.60
2019-01-15T04:03:23.959Z,97.60
2019-01-15T04:05:50.083Z,97.60
2019-01-15T04:08:16.163Z,97.70
2019-01-15T04:10:42.370Z,97.70
2019-01-15T04:13:11.447Z,97.80
2019-01-15T04:15:36.483Z,97.60
2019-01-15T04:18:02.594Z,97.60
2019-01-15T04:20:28.679Z,97.70
2019-01-15T04:22:54.996Z,97.60
2019-01-15T04:25:21.123Z,97.70
2019-01-15T04:27:47.498Z,97.50
2019-01-15T04:30:19.155Z,97.40
2019-01-15T04:32:45.287Z,97.30
2019-01-15T04:35:11.371Z,97.20
2019-01-15T04:37:37.505Z,97.20
2019-01-15T04:40:07.400Z,97.10
2019-01-15T04:42:33.517Z,97.10
2019-01-15T04:45:00.090Z,97.20
2019-01-15T04:47:26.199Z,97.30
2019-01-15T04:49:52.295Z,97.40
2019-01-15T04:52:19.059Z,97.50
2019-01-15T04:54:45.169Z,97.60
2019-01-15T04:57:11.787Z,97.70
2019-01-15T04:59:38.278Z,97.70
2019-01-15T05:02:04.691Z,97.50
2019-01-15T05:04:30.796Z,97.30
2019-01-15T05:06:56.883Z,97.20
2019-01-15T05:09:23.001Z,97.20
2019-01-15T05:11:49.094Z,97.20
2019-01-15T05:14:15.214Z,97.40
2019-01-15T05:16:41.320Z,97.50
2019-01-15T05:19:07.447Z,97.80
2019-01-15T05:21:33.554Z,98.00
2019-01-15T05:23:59.689Z,98.10
2019-01-15T05:26:25.789Z,98.10
2019-01-15T05:28:51.891Z,98.30
2019-01-15T05:31:17.992Z,98.60
2019-01-15T05:33:44.101Z,98.60
2019-01-15T05:36:10.203Z,98.50
2019-01-15T05:38:36.382Z,98.60
2019-01-15T05:41:02.515Z,98.60
2019-01-15T05:43:35.242Z,98.80
2019-01-15T05:45:56.648Z,98.80
2019-01-15T05:48:23.490Z,98.90
2019-01-15T05:50:54.541Z,99.00
2019-01-15T05:53:20.631Z,99.10
2019-01-15T05:55:46.740Z,99.00
2019-01-15T05:58:12.826Z,98.70
2019-01-15T06:00:38.950Z,98.40
2019-01-15T06:03:05.050Z,98.20
2019-01-15T06:05:31.174Z,98.10
2019-01-15T06:07:57.263Z,97.80
2019-01-15T06:10:23.396Z,97.70
2019-01-15T06:12:49.694Z,97.70
2019-01-15T06:15:16.231Z,97.50
2019-01-15T06:17:42.327Z,97.30
2019-01-15T06:20:17.211Z,97.50
2019-01-15T06:22:43.310Z,97.10
2019-01-15T06:25:09.456Z,97.10
2019-01-15T06:27:35.578Z,97.10
2019-01-15T06:30:02.106Z,97.10
2019-01-15T06:32:28.214Z,97.00
2019-01-15T06:34:54.302Z,96.90
2019-01-15T06:37:20.424Z,96.90
2019-01-15T06:39:46.507Z,96.80
2019-01-15T06:42:12.632Z,96.80
2019-01-15T06:44:38.754Z,96.70
2019-01-15T06:47:04.886Z,96.70
2019-01-15T06:49:30.983Z,96.70
2019-01-15T06:51:57.086Z,96.80
2019-01-15T06:54:23.211Z,96.70
2019-01-15T06:56:49.336Z,96.60
2019-01-15T06:59:15.455Z,96.70
2019-01-15T07:01:41.575Z,96.60
2019-01-15T07:04:07.728Z,96.50
2019-01-15T07:06:33.824Z,96.40
2019-01-15T07:08:59.955Z,96.40
2019-01-15T07:11:26.051Z,96.40
2019-01-15T07:13:57.006Z,96.20
2019-01-15T07:16:20.577Z,95.90
2019-01-15T07:18:46.706Z,95.70
2019-01-15T07:21:12.783Z,95.80
2019-01-15T07:23:38.922Z,95.70
2019-01-15T07:26:05.007Z,95.60
2019-01-15T07:28:31.147Z,95.40
2019-01-15T07:30:57.234Z,95.60
2019-01-15T07:33:23.374Z,95.40
2019-01-15T07:35:49.475Z,95.20
2019-01-15T07:38:15.567Z,95.10
2019-01-15T07:40:41.675Z,94.90
2019-01-15T07:43:07.792Z,94.80
2019-01-15T07:45:33.951Z,94.90
2019-01-15T07:48:00.023Z,94.90
2019-01-15T07:50:26.152Z,95.00
2019-01-15T07:52:52.247Z,95.00
2019-01-15T07:55:20.771Z,94.90
2019-01-15T07:57:46.875Z,94.90
2019-01-15T08:00:15.563Z,94.90
2019-01-15T08:02:41.695Z,95.10
2019-01-15T08:05:10.586Z,95.00
2019-01-15T08:07:36.683Z,95.10
2019-01-15T08:10:06.614Z,95.10
2019-01-15T08:12:32.738Z,95.00
2019-01-15T08:14:58.831Z,95.10
2019-01-15T08:17:24.954Z,95.00
2019-01-15T08:19:51.051Z,95.00
2019-01-15T08:22:17.155Z,95.00
2019-01-15T08:24:43.265Z,94.80
2019-01-15T08:27:09.391Z,94.60
2019-01-15T08:29:35.492Z,94.60
2019-01-15T08:32:05.316Z,94.50
2019-01-15T08:34:31.401Z,94.70
2019-01-15T08:36:57.543Z,94.40
2019-01-15T08:39:23.623Z,94.20
2019-01-15T08:41:49.744Z,94.20
2019-01-15T08:44:19.299Z,94.60
2019-01-15T08:46:45.253Z,94.40
2019-01-15T08:49:11.409Z,94.60
2019-01-15T08:51:38.007Z,94.30
2019-01-15T08:54:04.543Z,94.20
2019-01-15T08:56:30.635Z,93.90
2019-01-15T08:58:56.750Z,93.90
2019-01-15T09:01:22.839Z,93.80
2019-01-15T09:03:48.966Z,93.40
2019-01-15T09:06:15.183Z,93.10
2019-01-15T09:08:41.330Z,93.00
2019-01-15T09:11:07.467Z,93.00
2019-01-15T09:13:33.681Z,93.20
2019-01-15T09:15:59.811Z,92.70
2019-01-15T09:18:26.332Z,92.70
2019-01-15T09:20:52.447Z,92.90
2019-01-15T09:23:18.626Z,92.70
2019-01-15T09:25:44.860Z,92.70
2019-01-15T09:28:10.978Z,92.60
2019-01-15T09:30:37.091Z,92.60
2019-01-15T09:33:03.278Z,92.70
2019-01-15T09:35:29.419Z,92.80
2019-01-15T09:37:55.614Z,92.60
2019-01-15T09:40:23.034Z,92.70
2019-01-15T09:42:49.130Z,92.20
2019-01-15T09:45:20.360Z,92.20
2019-01-15T09:48:00.635Z,92.20
2019-01-15T09:50:26.765Z,91.50
2019-01-15T09:52:53.260Z,91.60
2019-01-15T09:55:19.385Z,91.30
2019-01-15T09:57:45.480Z,91.70
2019-01-15T10:00:17.342Z,91.60
2019-01-15T10:02:43.482Z,91.50
2019-01-15T10:05:09.569Z,91.50
2019-01-15T10:07:35.707Z,91.70
2019-01-15T10:10:05.535Z,92.10
2019-01-15T10:12:31.667Z,91.80
2019-01-15T10:14:57.770Z,91.30
2019-01-15T10:17:23.915Z,91.40
2019-01-15T10:19:49.995Z,91.10
2019-01-15T10:22:17.019Z,91.40
2019-01-15T10:24:43.510Z,91.00
2019-01-15T10:27:10.040Z,91.10
2019-01-15T10:29:36.531Z,90.90
2019-01-15T10:32:32.448Z,90.90
2019-01-15T10:35:02.868Z,91.00
2019-01-15T10:37:29.012Z,91.30
2019-01-15T10:39:55.124Z,90.70
2019-01-15T10:42:21.214Z,90.40
2019-01-15T10:44:48.748Z,90.30
2019-01-15T10:47:15.372Z,90.70
2019-01-15T10:49:41.481Z,90.50
2019-01-15T10:52:07.595Z,90.60
2019-01-15T10:54:33.719Z,90.10
2019-01-15T10:57:00.123Z,89.10
2019-01-15T10:59:26.267Z,88.90
2019-01-15T11:01:52.439Z,87.40
2019-01-15T11:04:18.573Z,87.60
2019-01-15T11:06:44.666Z,86.80
2019-01-15T11:09:10.751Z,84.70
2019-01-15T11:11:36.879Z,85.10
2019-01-15T11:14:02.998Z,81.80
2019-01-15T11:16:29.108Z,82.60
2019-01-15T11:18:55.241Z,82.50
2019-01-15T11:21:21.368Z,81.40
2019-01-15T11:23:47.455Z,81.10
2019-01-15T11:26:13.603Z,80.80
2019-01-15T11:28:39.701Z,81.80
2019-01-15T11:31:05.827Z,81.70
2019-01-15T11:33:31.943Z,82.40
2019-01-15T11:35:58.080Z,82.70
2019-01-15T11:38:24.190Z,83.20
2019-01-15T11:40:50.305Z,83.30
2019-01-15T11:43:16.398Z,82.80
2019-01-15T11:45:42.548Z,81.80
2019-01-15T11:48:08.643Z,81.20
2019-01-15T11:50:34.755Z,81.40
2019-01-15T11:53:00.858Z,80.40
2019-01-15T11:55:26.984Z,79.50
2019-01-15T11:57:53.095Z,82.00
2019-01-15T12:00:24.935Z,82.70
2019-01-15T12:02:52.972Z,82.20
2019-01-15T12:05:20.988Z,82.60
2019-01-15T12:07:57.839Z,82.10
2019-01-15T12:10:25.878Z,82.30
2019-01-15T12:13:03.246Z,82.10
2019-01-15T12:15:37.217Z,82.30
2019-01-15T12:18:17.867Z,82.10
2019-01-15T12:20:48.685Z,81.90
2019-01-15T12:23:22.938Z,81.60
2019-01-15T12:25:57.364Z,80.50
2019-01-15T12:28:42.211Z,82.30
2019-01-15T12:31:10.231Z,80.70
2019-01-15T12:33:47.571Z,80.30
2019-01-15T12:36:18.457Z,78.80
2019-01-15T12:38:58.399Z,78.70
2019-01-15T12:41:26.420Z,77.90
2019-01-15T12:43:57.336Z,79.30
2019-01-15T12:46:31.319Z,79.70
2019-01-15T12:49:05.123Z,80.00
2019-01-15T12:51:33.143Z,80.70
2019-01-15T12:54:04.046Z,80.80
2019-01-15T12:56:34.817Z,81.90
2019-01-15T12:59:05.866Z,82.30
2019-01-15T13:01:33.872Z,82.30
2019-01-15T13:04:04.664Z,82.60
2019-01-15T13:06:32.659Z,82.90
2019-01-15T13:09:09.603Z,83.40
2019-01-15T13:11:52.552Z,83.60
2019-01-15T13:14:20.576Z,83.20
2019-01-15T13:16:57.646Z,82.30
2019-01-15T13:19:34.536Z,82.20
2019-01-15T13:22:05.607Z,82.10
2019-01-15T13:24:33.958Z,81.60
2019-01-15T13:27:17.303Z,81.60
2019-01-15T13:29:48.232Z,81.30
2019-01-15T13:32:16.422Z,82.60
2019-01-15T13:34:56.734Z,82.50
2019-01-15T13:37:24.768Z,83.40
2019-01-15T13:39:52.815Z,83.40
2019-01-15T13:42:26.669Z,83.70
2019-01-15T13:44:54.711Z,82.70
2019-01-15T13:47:29.016Z,82.70
2019-01-15T13:50:00.035Z,83.90
2019-01-15T13:52:28.069Z,84.40
2019-01-15T13:54:56.067Z,84.40
2019-01-15T13:57:24.102Z,84.70
2019-01-15T14:00:08.608Z,85.00
2019-01-15T14:02:39.425Z,84.60
2019-01-15T14:05:08.436Z,84.60
2019-01-15T14:07:39.374Z,85.40
2019-01-15T14:10:11.215Z,86.30
2019-01-15T14:12:42.067Z,85.40
2019-01-15T14:15:10.063Z,85.30
2019-01-15T14:17:41.156Z,85.70
2019-01-15T14:20:23.239Z,85.40
2019-01-15T14:22:51.312Z,86.30
2019-01-15T14:25:25.360Z,86.60
2019-01-15T14:27:59.222Z,86.90
2019-01-15T14:30:33.326Z,87.70
2019-01-15T14:33:01.343Z,88.50
2019-01-15T14:35:29.384Z,89.30
2019-01-15T14:38:09.402Z,89.70
2019-01-15T14:40:49.575Z,89.80
2019-01-15T14:43:29.507Z,90.40
2019-01-15T14:46:00.349Z,90.60
2019-01-15T14:48:27.558Z,90.80
2019-01-15T14:50:55.651Z,90.70
2019-01-15T14:53:32.706Z,90.60
2019-01-15T14:56:15.740Z,90.50
2019-01-15T14:58:53.010Z,90.60
2019-01-15T15:01:21.054Z,90.30
2019-01-15T15:03:52.335Z,90.40
2019-01-15T15:06:20.403Z,90.40
2019-01-15T15:08:57.624Z,90.60
2019-01-15T15:11:43.977Z,90.80
2019-01-15T15:14:28.536Z,91.00
2019-01-15T15:17:02.489Z,91.30
2019-01-15T15:19:30.499Z,91.30
2019-01-15T15:21:58.556Z,91.60
2019-01-15T15:24:26.565Z,91.50
2019-01-15T15:26:54.615Z,91.50
2019-01-15T15:29:31.495Z,91.50
2019-01-15T15:32:16.319Z,91.50
2019-01-15T15:34:44.348Z,91.40
2019-01-15T15:37:12.399Z,91.50
2019-01-15T15:39:52.650Z,91.50
2019-01-15T15:42:32.633Z,91.40
2019-01-15T15:45:00.652Z,91.70
2019-01-15T15:47:45.498Z,91.80
2019-01-15T15:50:28.667Z,91.80
2019-01-15T15:53:02.747Z,91.70
2019-01-15T15:55:40.082Z,91.80
2019-01-15T15:58:08.098Z,91.80
2019-01-15T16:00:36.119Z,91.70
2019-01-15T16:03:19.189Z,91.90
2019-01-15T16:05:47.216Z,91.70
2019-01-15T16:08:21.239Z,91.80
2019-01-15T16:10:49.339Z,92.00
2019-01-15T16:13:22.932Z,92.00
2019-01-15T16:15:53.883Z,92.10
2019-01-15T16:18:38.770Z,92.20
2019-01-15T16:21:18.627Z,91.90
2019-01-15T16:23:49.146Z,92.00
2019-01-15T16:26:17.216Z,92.10
2019-01-15T16:28:51.239Z,91.90
2019-01-15T16:31:19.658Z,92.00
2019-01-15T16:33:47.683Z,91.90
2019-01-15T16:36:21.482Z,91.80
2019-01-15T16:39:06.011Z,91.80
2019-01-15T16:41:34.073Z,91.60
2019-01-15T16:44:07.892Z,91.80
2019-01-15T16:46:41.865Z,91.70
2019-01-15T16:49:26.511Z,91.90
2019-01-15T16:51:54.551Z,91.70
2019-01-15T16:54:22.591Z,91.70
2019-01-15T16:57:07.463Z,91.80
2019-01-15T16:59:50.584Z,91.80
2019-01-15T17:02:35.204Z,91.90
2019-01-15T17:05:03.310Z,92.00
2019-01-15T17:07:31.341Z,92.10
2019-01-15T17:10:08.345Z,92.20
2019-01-15T17:12:45.465Z,92.20
2019-01-15T17:15:13.475Z,92.10
2019-01-15T17:17:44.261Z,92.20
2019-01-15T17:20:12.279Z,92.30
2019-01-15T17:22:40.323Z,92.30
2019-01-15T17:25:17.351Z,92.20
2019-01-15T17:28:02.146Z,92.00
2019-01-15T17:30:36.036Z,91.80
2019-01-15T17:33:09.823Z,91.70
2019-01-15T17:35:40.844Z,91.40
2019-01-15T17:38:15.067Z,91.40
2019-01-15T17:40:43.063Z,91.40
2019-01-15T17:43:13.867Z,90.90
2019-01-15T17:45:47.892Z,91.00
2019-01-15T17:48:19.231Z,90.90
2019-01-15T17:50:50.352Z,90.90
2019-01-15T17:53:34.921Z,90.80
2019-01-15T17:56:14.935Z,90.80
2019-01-15T17:58:46.011Z,90.60
2019-01-15T18:01:26.048Z,90.60
2019-01-15T18:04:03.131Z,90.80
2019-01-15T18:06:48.081Z,90.60
2019-01-15T18:09:34.229Z,90.80
2019-01-15T18:12:05.014Z,90.90
2019-01-15T18:14:45.326Z,91.10
2019-01-15T18:17:13.364Z,90.80
2019-01-15T18:19:50.568Z,91.00
2019-01-15T18:22:18.588Z,91.10
2019-01-15T18:24:46.808Z,91.10
2019-01-15T18:27:30.099Z,91.10
2019-01-15T18:30:01.145Z,91.00
2019-01-15T18:32:32.748Z,91.10
2019-01-15T18:35:00.768Z,91.00
2019-01-15T18:37:38.095Z,90.90
2019-01-15T18:40:15.900Z,90.90
2019-01-15T18:42:53.287Z,90.80
2019-01-15T18:45:24.355Z,90.80
2019-01-15T18:47:55.176Z,90.80
2019-01-15T18:50:23.215Z,90.60
2019-01-15T18:53:03.271Z,90.60
2019-01-15T18:55:42.151Z,90.60
2019-01-15T18:58:10.175Z,90.70
2019-01-15T19:00:51.959Z,90.80
2019-01-15T19:03:23.090Z,90.90
2019-01-15T19:05:51.682Z,91.20
2019-01-15T19:08:34.888Z,90.90
2019-01-15T19:11:03.007Z,90.90
2019-01-15T19:13:31.077Z,91.00
2019-01-15T19:16:05.061Z,90.80
2019-01-15T19:18:35.885Z,90.90
2019-01-15T19:21:20.702Z,90.90
2019-01-15T19:23:48.931Z,90.90
2019-01-15T19:26:16.973Z,90.90
2019-01-15T19:28:57.266Z,90.80
2019-01-15T19:31:37.580Z,90.90
2019-01-15T19:34:17.851Z,90.90
2019-01-15T19:36:54.791Z,90.80
2019-01-15T19:39:25.588Z,90.90
2019-01-15T19:41:53.614Z,90.80
2019-01-15T19:44:37.146Z,90.80
2019-01-15T19:47:10.590Z,90.80
2019-01-15T19:49:51.684Z,90.80
2019-01-15T19:52:25.480Z,90.80
2019-01-15T19:54:56.295Z,90.80
2019-01-15T19:57:30.196Z,90.80
2019-01-15T20:00:15.038Z,90.70
2019-01-15T20:02:43.044Z,90.80
2019-01-15T20:05:13.923Z,90.80
2019-01-15T20:07:41.939Z,90.80
2019-01-15T20:10:23.247Z,90.80
2019-01-15T20:13:03.463Z,90.90
2019-01-15T20:15:46.885Z,91.00
2019-01-15T20:18:20.831Z,90.60
2019-01-15T20:20:49.098Z,90.90
2019-01-15T20:23:26.176Z,90.70
2019-01-15T20:26:03.075Z,90.80
2019-01-15T20:28:31.098Z,90.80
2019-01-15T20:30:59.119Z,91.00
2019-01-15T20:33:43.954Z,91.10
2019-01-15T20:36:12.046Z,91.20
2019-01-15T20:38:40.053Z,91.30
2019-01-15T20:41:23.166Z,91.60
2019-01-15T20:43:56.959Z,91.20
2019-01-15T20:46:28.209Z,91.30
2019-01-15T20:49:12.779Z,91.20
2019-01-15T20:51:58.851Z,91.30
2019-01-15T20:54:32.944Z,91.50
2019-01-15T20:57:09.983Z,91.60
2019-01-15T20:59:54.540Z,91.80
2019-01-15T21:02:28.305Z,92.10
2019-01-15T21:05:02.156Z,92.00
2019-01-15T21:07:33.323Z,92.00
2019-01-15T21:10:01.529Z,91.90
2019-01-15T21:12:46.097Z,91.90
2019-01-15T21:15:28.750Z,92.00
2019-01-15T21:18:02.681Z,92.10
2019-01-15T21:20:39.812Z,92.00
2019-01-15T21:23:10.744Z,92.30
2019-01-15T21:25:57.055Z,91.90
2019-01-15T21:28:43.164Z,92.00
2019-01-15T21:31:23.264Z,92.10
2019-01-15T21:34:00.455Z,92.20
2019-01-15T21:36:44.991Z,92.30
2019-01-15T21:39:29.564Z,92.50
2019-01-15T21:42:06.414Z,92.80
2019-01-15T21:44:34.542Z,92.60
2019-01-15T21:47:17.635Z,92.60
2019-01-15T21:49:48.431Z,92.60
2019-01-15T21:52:34.967Z,92.60
2019-01-15T21:55:02.976Z,92.60
2019-01-15T21:57:31.007Z,92.50
2019-01-15T22:00:02.016Z,92.30
2019-01-15T22:02:30.045Z,92.30
2019-01-15T22:05:01.024Z,92.20
2019-01-15T22:07:45.594Z,92.30
2019-01-15T22:10:22.615Z,92.30
2019-01-15T22:12:59.592Z,92.40
2019-01-15T22:15:30.563Z,92.40
2019-01-15T22:18:15.370Z,92.30
2019-01-15T22:20:46.251Z,92.30
2019-01-15T22:23:26.323Z,92.40
2019-01-15T22:26:09.353Z,92.40
2019-01-15T22:28:53.913Z,92.30
2019-01-15T22:31:39.008Z,92.30
2019-01-15T22:34:07.168Z,92.40
2019-01-15T22:36:44.087Z,92.40
2019-01-15T22:39:27.459Z,92.40
2019-01-15T22:41:55.711Z,92.50
2019-01-15T22:44:32.884Z,92.50
2019-01-15T22:47:19.354Z,92.50
2019-01-15T22:49:49.932Z,92.60
2019-01-15T22:52:20.751Z,92.70
2019-01-15T22:54:48.760Z,92.60
2019-01-15T22:57:33.598Z,92.70
2019-01-15T23:00:01.616Z,92.70
2019-01-15T23:02:41.717Z,92.60
2019-01-15T23:05:09.723Z,92.60
2019-01-15T23:07:43.567Z,92.70
2019-01-15T23:10:29.843Z,92.70
2019-01-15T23:13:03.915Z,92.70
2019-01-15T23:15:41.139Z,92.70
2019-01-15T23:18:15.375Z,92.70
2019-01-15T23:20:49.390Z,92.70
2019-01-15T23:23:33.918Z,92.70
2019-01-15T23:26:14.003Z,92.50
2019-01-15T23:28:42.040Z,92.60
2019-01-15T23:31:20.823Z,92.60
2019-01-15T23:33:48.827Z,92.70
2019-01-15T23:36:19.805Z,92.60
2019-01-15T23:38:56.799Z,92.60
2019-01-15T23:41:24.803Z,92.60
2019-01-15T23:43:59.323Z,92.60
2019-01-15T23:46:42.582Z,92.60
2019-01-15T23:49:19.565Z,92.70
2019-01-15T23:51:50.548Z,92.60
2019-01-15T23:54:18.539Z,92.60
2019-01-15T23:56:55.179Z,92.60
2019-01-15T23:59:38.375Z,92.70
